createdAt,value
2022-08-01T00:01:17.487Z,1.77
2022-08-01T00:03:45.626Z,2.07
2022-08-01T00:06:12.807Z,1.20
2022-08-01T00:08:40.695Z,1.50
2022-08-01T00:11:07.572Z,1.40
2022-08-01T00:13:36.112Z,1.50
2022-08-01T00:16:03.868Z,1.73
2022-08-01T00:18:31.737Z,2.03
2022-08-01T00:20:58.895Z,1.67
2022-08-01T00:23:26.958Z,1.30
2022-08-01T00:25:54.815Z,1.30
2022-08-01T00:28:22.790Z,2.27
2022-08-01T00:30:49.761Z,1.40
2022-08-01T00:33:17.577Z,1.30
2022-08-01T00:35:44.890Z,2.63
2022-08-01T00:38:13.279Z,1.30
2022-08-01T00:40:40.872Z,1.50
2022-08-01T00:43:08.885Z,1.20
2022-08-01T00:45:35.811Z,1.30
2022-08-01T00:48:04.076Z,1.30
2022-08-01T00:50:32.153Z,1.20
2022-08-01T00:53:02.290Z,1.10
2022-08-01T00:55:30.696Z,1.27
2022-08-01T00:58:04.649Z,1.30
2022-08-01T01:00:52.013Z,1.40
2022-08-01T01:03:29.427Z,1.30
2022-08-01T01:06:22.089Z,1.87
2022-08-01T01:08:59.323Z,1.20
2022-08-01T01:11:38.533Z,1.30
2022-08-01T01:14:14.610Z,1.30
2022-08-01T01:16:46.542Z,1.57
2022-08-01T01:19:21.895Z,1.10
2022-08-01T01:22:20.214Z,1.10
2022-08-01T01:25:04.050Z,1.43
2022-08-01T01:27:50.849Z,1.93
2022-08-01T01:30:18.179Z,1.47
2022-08-01T01:32:50.937Z,1.37
2022-08-01T01:35:35.088Z,1.40
2022-08-01T01:38:09.951Z,1.10
2022-08-01T01:40:38.207Z,1.20
2022-08-01T01:43:11.315Z,1.40
2022-08-01T01:45:40.186Z,1.83
2022-08-01T01:48:11.318Z,1.50
2022-08-01T01:50:39.826Z,1.47
2022-08-01T01:53:08.855Z,1.60
2022-08-01T01:55:49.302Z,1.40
2022-08-01T01:58:20.658Z,1.83
2022-08-01T02:00:50.777Z,1.40
2022-08-01T02:03:20.057Z,1.47
2022-08-01T02:05:49.527Z,1.30
2022-08-01T02:08:18.271Z,1.23
2022-08-01T02:11:05.194Z,1.20
2022-08-01T02:13:35.552Z,1.40
2022-08-01T02:16:05.401Z,1.23
2022-08-01T02:18:34.152Z,1.20
2022-08-01T02:21:06.433Z,1.20
2022-08-01T02:23:37.070Z,1.40
2022-08-01T02:26:11.678Z,1.30
2022-08-01T02:28:47.071Z,1.30
2022-08-01T02:31:20.156Z,1.20
2022-08-01T02:33:58.021Z,1.30
2022-08-01T02:36:31.362Z,1.30
2022-08-01T02:39:07.351Z,1.30
2022-08-01T02:41:40.608Z,1.30
2022-08-01T02:44:10.283Z,1.30
2022-08-01T02:46:50.015Z,1.50
2022-08-01T02:49:22.301Z,1.40
2022-08-01T02:51:52.459Z,1.60
2022-08-01T02:54:23.216Z,1.37
2022-08-01T02:56:52.787Z,1.90
2022-08-01T02:59:26.679Z,2.70
2022-08-01T03:01:57.123Z,1.40
2022-08-01T03:04:26.439Z,1.30
2022-08-01T03:06:59.354Z,1.30
2022-08-01T03:09:28.094Z,1.43
2022-08-01T03:12:02.033Z,2.00
2022-08-01T03:14:31.820Z,1.40
2022-08-01T03:17:01.930Z,1.57
2022-08-01T03:19:31.354Z,1.50
2022-08-01T03:22:00.628Z,1.60
2022-08-01T03:24:30.063Z,1.30
2022-08-01T03:26:59.282Z,1.40
2022-08-01T03:29:30.856Z,1.20
2022-08-01T03:32:02.798Z,1.30
2022-08-01T03:34:31.712Z,1.50
2022-08-01T03:37:25.211Z,1.40
2022-08-01T03:40:02.248Z,1.20
2022-08-01T03:42:53.848Z,1.30
2022-08-01T03:45:28.343Z,1.27
2022-08-01T03:48:02.345Z,1.20
2022-08-01T03:50:34.739Z,1.30
2022-08-01T03:53:05.154Z,1.20
2022-08-01T03:55:35.152Z,1.20
2022-08-01T03:58:09.627Z,1.20
2022-08-01T04:00:42.396Z,1.10
2022-08-01T04:03:11.203Z,1.50
2022-08-01T04:05:42.410Z,1.10
2022-08-01T04:08:10.303Z,1.20
2022-08-01T04:10:38.467Z,1.20
2022-08-01T04:13:06.025Z,1.23
2022-08-01T04:15:34.070Z,1.10
2022-08-01T04:18:01.065Z,1.27
2022-08-01T04:20:29.486Z,1.40
2022-08-01T04:22:57.209Z,1.13
2022-08-01T04:25:33.978Z,1.40
2022-08-01T04:28:04.992Z,1.10
2022-08-01T04:30:35.808Z,1.20
2022-08-01T04:33:07.771Z,1.13
2022-08-01T04:36:04.096Z,1.00
2022-08-01T04:38:30.693Z,1.63
2022-08-01T04:40:58.952Z,1.60
2022-08-01T04:43:32.759Z,1.30
2022-08-01T04:46:01.165Z,1.30
2022-08-01T04:48:34.502Z,1.20
2022-08-01T04:51:02.861Z,1.10
2022-08-01T04:53:33.331Z,1.40
2022-08-01T04:56:01.599Z,2.80
2022-08-01T04:58:30.265Z,1.17
2022-08-01T05:00:57.940Z,1.60
2022-08-01T05:03:25.978Z,1.60
2022-08-01T05:05:52.890Z,1.30
2022-08-01T05:08:21.529Z,1.40
2022-08-01T05:10:48.402Z,2.50
2022-08-01T05:13:16.646Z,1.60
2022-08-01T05:15:44.992Z,1.20
2022-08-01T05:18:13.511Z,1.50
2022-08-01T05:20:42.493Z,1.40
2022-08-01T05:23:10.999Z,1.20
2022-08-01T05:25:56.753Z,1.30
2022-08-01T05:28:26.577Z,1.27
2022-08-01T05:30:56.140Z,1.30
2022-08-01T05:33:24.582Z,1.43
2022-08-01T05:35:52.067Z,1.30
2022-08-01T05:38:19.975Z,1.20
2022-08-01T05:40:48.048Z,1.37
2022-08-01T05:43:14.986Z,1.50
2022-08-01T05:45:43.198Z,1.20
2022-08-01T05:48:11.017Z,1.30
2022-08-01T05:50:39.281Z,1.20
2022-08-01T05:53:07.155Z,1.30
2022-08-01T05:55:36.125Z,1.50
2022-08-01T05:58:03.433Z,1.20
2022-08-01T06:00:31.507Z,1.60
2022-08-01T06:02:59.651Z,1.50
2022-08-01T06:05:27.028Z,3.03
2022-08-01T06:07:54.960Z,2.37
2022-08-01T06:10:23.353Z,1.40
2022-08-01T06:12:51.655Z,1.50
2022-08-01T06:15:20.031Z,1.30
2022-08-01T06:17:48.130Z,1.40
2022-08-01T06:20:16.673Z,1.60
2022-08-01T06:22:44.000Z,1.13
2022-08-01T06:25:12.263Z,1.97
2022-08-01T06:27:40.032Z,1.50
2022-08-01T06:30:08.711Z,1.27
2022-08-01T06:32:37.187Z,1.67
2022-08-01T06:35:06.004Z,1.97
2022-08-01T06:37:33.506Z,1.50
2022-08-01T06:40:07.386Z,1.83
2022-08-01T06:42:38.844Z,1.57
2022-08-01T06:45:09.072Z,1.30
2022-08-01T06:47:38.333Z,1.37
2022-08-01T06:50:09.617Z,1.40
2022-08-01T06:52:38.329Z,1.40
2022-08-01T06:55:06.561Z,1.60
2022-08-01T06:57:34.517Z,2.10
2022-08-01T07:00:10.333Z,1.40
2022-08-01T07:02:38.318Z,1.40
2022-08-01T07:05:07.183Z,1.50
2022-08-01T07:07:35.290Z,2.50
2022-08-01T07:10:04.163Z,1.60
2022-08-01T07:12:33.865Z,1.40
2022-08-01T07:15:01.032Z,1.20
2022-08-01T07:17:29.050Z,1.20
2022-08-01T07:19:57.888Z,1.30
2022-08-01T07:22:25.062Z,2.13
2022-08-01T07:24:55.264Z,1.40
2022-08-01T07:27:25.813Z,1.37
2022-08-01T07:29:54.622Z,2.00
2022-08-01T07:32:23.527Z,2.63
2022-08-01T07:34:51.919Z,1.90
2022-08-01T07:37:19.364Z,1.93
2022-08-01T07:40:08.106Z,2.43
2022-08-01T07:42:36.310Z,2.13
2022-08-01T07:45:04.992Z,1.60
2022-08-01T07:47:33.129Z,1.53
2022-08-01T07:50:01.985Z,1.80
2022-08-01T07:52:31.285Z,1.83
2022-08-01T07:54:59.920Z,1.87
2022-08-01T07:57:28.850Z,1.70
2022-08-01T07:59:56.396Z,2.53
2022-08-01T08:02:24.547Z,1.80
2022-08-01T08:04:52.989Z,1.90
2022-08-01T08:07:20.096Z,1.67
2022-08-01T08:09:51.211Z,1.90
2022-08-01T08:12:28.705Z,1.73
2022-08-01T08:14:59.908Z,2.30
2022-08-01T08:17:28.849Z,2.30
2022-08-01T08:20:09.292Z,1.90
2022-08-01T08:22:37.654Z,2.03
2022-08-01T08:25:07.612Z,2.90
2022-08-01T08:27:37.410Z,1.70
2022-08-01T08:30:12.112Z,1.60
2022-08-01T08:32:39.651Z,1.83
2022-08-01T08:35:08.903Z,1.90
2022-08-01T08:37:47.261Z,2.30
2022-08-01T08:40:16.719Z,1.70
2022-08-01T08:42:45.185Z,2.03
2022-08-01T08:45:13.574Z,3.00
2022-08-01T08:47:42.730Z,1.93
2022-08-01T08:50:11.290Z,1.97
2022-08-01T08:52:40.562Z,1.90
2022-08-01T08:55:10.448Z,1.63
2022-08-01T08:57:41.738Z,2.17
2022-08-01T09:00:11.713Z,1.70
2022-08-01T09:02:47.507Z,1.60
2022-08-01T09:05:19.664Z,2.13
2022-08-01T09:07:48.383Z,1.90
2022-08-01T09:10:16.607Z,1.87
2022-08-01T09:13:14.156Z,2.10
2022-08-01T09:15:51.306Z,1.50
2022-08-01T09:18:35.854Z,2.00
2022-08-01T09:21:22.340Z,1.70
2022-08-01T09:23:53.502Z,2.10
2022-08-01T09:26:31.788Z,1.60
2022-08-01T09:29:03.167Z,1.73
2022-08-01T09:31:47.090Z,1.83
2022-08-01T09:34:25.219Z,2.40
2022-08-01T09:37:02.137Z,1.70
2022-08-01T09:39:38.570Z,1.70
2022-08-01T09:42:29.357Z,2.03
2022-08-01T09:44:57.203Z,2.03
2022-08-01T09:47:40.766Z,2.13
2022-08-01T09:50:11.096Z,2.33
2022-08-01T09:52:41.069Z,1.67
2022-08-01T09:55:11.353Z,1.50
2022-08-01T09:57:41.427Z,2.20
2022-08-01T10:00:42.777Z,1.60
2022-08-01T10:03:24.825Z,1.67
2022-08-01T10:05:58.277Z,1.50
2022-08-01T10:08:28.366Z,1.60
2022-08-01T10:11:12.212Z,1.90
2022-08-01T10:13:41.202Z,1.50
2022-08-01T10:16:10.710Z,2.03
2022-08-01T10:18:41.997Z,1.60
2022-08-01T10:21:10.950Z,1.60
2022-08-01T10:23:41.275Z,1.60
2022-08-01T10:26:12.872Z,1.60
2022-08-01T10:28:46.062Z,1.50
2022-08-01T10:31:15.076Z,1.70
2022-08-01T10:33:51.333Z,2.23
2022-08-01T10:36:25.394Z,2.17
2022-08-01T10:38:56.061Z,1.60
2022-08-01T10:41:27.489Z,1.73
2022-08-01T10:43:56.668Z,1.67
2022-08-01T10:46:25.621Z,1.77
2022-08-01T10:49:07.476Z,1.50
2022-08-01T10:51:52.277Z,2.20
2022-08-01T10:54:26.592Z,1.60
2022-08-01T10:57:00.877Z,1.40
2022-08-01T10:59:58.930Z,2.00
2022-08-01T11:02:33.060Z,1.67
2022-08-01T11:05:10.450Z,1.77
2022-08-01T11:07:52.846Z,1.40
2022-08-01T11:10:31.286Z,1.63
2022-08-01T11:13:02.074Z,1.77
2022-08-01T11:15:32.458Z,2.00
2022-08-01T11:18:02.146Z,1.70
2022-08-01T11:20:42.210Z,1.73
2022-08-01T11:23:13.931Z,1.93
2022-08-01T11:26:05.813Z,1.93
2022-08-01T11:28:40.640Z,1.73
2022-08-01T11:31:27.714Z,1.70
2022-08-01T11:34:01.708Z,1.63
2022-08-01T11:36:57.665Z,1.83
2022-08-01T11:39:20.724Z,1.80
2022-08-01T11:41:50.127Z,1.73
2022-08-01T11:44:26.361Z,1.53
2022-08-01T11:47:08.900Z,1.80
2022-08-01T11:49:56.241Z,1.63
2022-08-01T11:52:29.083Z,1.50
2022-08-01T11:55:04.746Z,1.90
2022-08-01T11:57:38.343Z,2.00
2022-08-01T12:00:17.375Z,1.67
2022-08-01T12:02:47.202Z,1.40
2022-08-01T12:05:19.265Z,1.83
2022-08-01T12:07:51.675Z,1.80
2022-08-01T12:10:22.232Z,1.60
2022-08-01T12:12:52.504Z,1.40
2022-08-01T12:15:23.232Z,1.73
2022-08-01T12:17:57.509Z,1.57
2022-08-01T12:20:35.146Z,1.70
2022-08-01T12:23:07.203Z,2.63
2022-08-01T12:25:35.851Z,1.70
2022-08-01T12:28:07.219Z,2.27
2022-08-01T12:30:36.809Z,1.60
2022-08-01T12:33:07.164Z,1.50
2022-08-01T12:35:37.602Z,1.87
2022-08-01T12:38:08.230Z,1.70
2022-08-01T12:40:45.077Z,2.23
2022-08-01T12:43:27.504Z,1.70
2022-08-01T12:46:02.221Z,1.90
2022-08-01T12:48:31.663Z,1.77
2022-08-01T12:51:02.247Z,1.97
2022-08-01T12:53:41.208Z,2.17
2022-08-01T12:56:11.958Z,1.90
2022-08-01T12:58:40.429Z,1.70
2022-08-01T13:01:12.438Z,1.87
2022-08-01T13:03:41.418Z,1.60
2022-08-01T13:06:15.525Z,1.87
2022-08-01T13:08:45.045Z,1.73
2022-08-01T13:11:18.194Z,1.70
2022-08-01T13:13:51.290Z,1.80
2022-08-01T13:16:27.804Z,1.90
2022-08-01T13:19:07.558Z,1.90
2022-08-01T13:21:53.608Z,1.93
2022-08-01T13:24:30.469Z,2.13
2022-08-01T13:27:04.661Z,2.20
2022-08-01T13:29:43.901Z,1.93
2022-08-01T13:32:29.092Z,1.90
2022-08-01T13:35:08.769Z,2.10
2022-08-01T13:37:38.567Z,1.80
2022-08-01T13:40:09.447Z,1.70
2022-08-01T13:42:38.358Z,1.97
2022-08-01T13:45:14.073Z,2.13
2022-08-01T13:48:12.469Z,2.10
2022-08-01T13:50:32.571Z,2.50
2022-08-01T13:53:00.373Z,1.77
2022-08-01T13:55:34.252Z,2.30
2022-08-01T13:58:04.326Z,1.80
2022-08-01T14:00:32.648Z,1.60
2022-08-01T14:03:00.351Z,1.57
2022-08-01T14:05:28.686Z,1.80
2022-08-01T14:07:57.436Z,1.60
2022-08-01T14:10:27.085Z,1.90
2022-08-01T14:12:56.885Z,1.70
2022-08-01T14:15:37.311Z,1.57
2022-08-01T14:18:09.263Z,1.80
2022-08-01T14:20:38.445Z,1.83
2022-08-01T14:23:08.924Z,5.90
2022-08-01T14:26:03.570Z,5.20
2022-08-01T14:28:28.411Z,4.70
2022-08-01T14:30:58.928Z,4.10
2022-08-01T14:33:27.443Z,4.80
2022-08-01T14:36:05.556Z,4.70
2022-08-01T14:38:46.275Z,5.80
2022-08-01T14:41:15.752Z,4.83
2022-08-01T14:43:43.710Z,5.20
2022-08-01T14:46:13.304Z,4.67
2022-08-01T14:48:40.742Z,5.00
2022-08-01T14:51:09.497Z,4.80
2022-08-01T14:53:38.476Z,6.50
2022-08-01T14:56:08.083Z,3.87
2022-08-01T14:58:36.630Z,3.90
2022-08-01T15:01:06.896Z,2.63
2022-08-01T15:03:35.192Z,2.73
2022-08-01T15:06:03.576Z,3.23
2022-08-01T15:08:31.061Z,2.60
2022-08-01T15:10:58.068Z,2.10
2022-08-01T15:13:26.362Z,2.30
2022-08-01T15:15:54.992Z,2.20
2022-08-01T15:18:29.688Z,2.20
2022-08-01T15:20:58.480Z,2.50
2022-08-01T15:23:25.465Z,2.33
2022-08-01T15:25:53.920Z,2.20
2022-08-01T15:28:21.710Z,1.83
2022-08-01T15:30:51.299Z,1.70
2022-08-01T15:33:18.452Z,1.63
2022-08-01T15:35:47.066Z,1.97
2022-08-01T15:38:14.403Z,1.73
2022-08-01T15:40:42.299Z,1.87
2022-08-01T15:43:09.347Z,1.50
2022-08-01T15:45:47.750Z,1.60
2022-08-01T15:48:19.646Z,1.90
2022-08-01T15:50:49.097Z,1.60
2022-08-01T15:53:16.537Z,1.60
2022-08-01T15:55:52.740Z,2.13
2022-08-01T15:58:20.708Z,1.50
2022-08-01T16:00:48.874Z,1.40
2022-08-01T16:03:16.471Z,1.50
2022-08-01T16:05:44.799Z,1.60
2022-08-01T16:08:13.106Z,1.43
2022-08-01T16:10:40.557Z,1.50
2022-08-01T16:13:09.272Z,1.50
2022-08-01T16:15:39.296Z,1.60
2022-08-01T16:18:14.607Z,1.57
2022-08-01T16:20:45.824Z,1.30
2022-08-01T16:23:15.326Z,1.40
2022-08-01T16:25:44.584Z,1.40
2022-08-01T16:28:14.228Z,1.20
2022-08-01T16:30:48.771Z,1.87
2022-08-01T16:33:41.224Z,1.20
2022-08-01T16:36:16.743Z,1.30
2022-08-01T16:38:45.419Z,2.03
2022-08-01T16:41:19.248Z,1.30
2022-08-01T16:43:53.745Z,1.27
2022-08-01T16:46:25.350Z,1.40
2022-08-01T16:48:54.138Z,1.50
2022-08-01T16:51:22.376Z,1.20
2022-08-01T16:53:49.934Z,1.30
2022-08-01T16:56:18.541Z,1.20
2022-08-01T16:58:47.373Z,1.20
2022-08-01T17:01:59.349Z,1.17
2022-08-01T17:04:03.810Z,1.30
2022-08-01T17:06:31.622Z,1.30
2022-08-01T17:08:59.738Z,1.40
2022-08-01T17:11:26.978Z,1.20
2022-08-01T17:13:55.368Z,1.20
2022-08-01T17:16:23.040Z,1.30
2022-08-01T17:18:51.453Z,1.23
2022-08-01T17:21:19.499Z,1.20
2022-08-01T17:23:46.792Z,1.27
2022-08-01T17:26:15.052Z,1.20
2022-08-01T17:28:43.614Z,1.23
2022-08-01T17:31:11.724Z,1.30
2022-08-01T17:33:45.358Z,1.20
2022-08-01T17:36:17.983Z,1.20
2022-08-01T17:38:46.851Z,1.27
2022-08-01T17:41:15.165Z,1.20
2022-08-01T17:43:43.532Z,1.20
2022-08-01T17:46:10.851Z,1.10
2022-08-01T17:48:39.133Z,1.23
2022-08-01T17:51:06.943Z,1.30
2022-08-01T17:53:35.541Z,1.20
2022-08-01T17:56:06.018Z,1.23
2022-08-01T17:58:51.890Z,1.10
2022-08-01T18:01:26.813Z,1.13
2022-08-01T18:03:55.989Z,1.20
2022-08-01T18:06:27.235Z,1.27
2022-08-01T18:08:56.248Z,1.30
2022-08-01T18:11:27.216Z,1.20
2022-08-01T18:13:59.770Z,1.20
2022-08-01T18:16:28.519Z,1.20
2022-08-01T18:18:56.126Z,1.33
2022-08-01T18:21:24.441Z,1.30
2022-08-01T18:23:52.268Z,1.40
2022-08-01T18:26:21.865Z,1.10
2022-08-01T18:28:49.907Z,1.10
2022-08-01T18:31:20.720Z,1.30
2022-08-01T18:33:48.995Z,1.30
2022-08-01T18:36:32.017Z,1.20
2022-08-01T18:39:10.105Z,1.30
2022-08-01T18:41:39.479Z,1.13
2022-08-01T18:44:08.956Z,1.20
2022-08-01T18:46:39.092Z,1.30
2022-08-01T18:49:10.432Z,1.20
2022-08-01T18:51:44.404Z,3.10
2022-08-01T18:54:14.162Z,1.20
2022-08-01T18:56:44.566Z,1.10
2022-08-01T18:59:12.267Z,1.20
2022-08-01T19:01:40.667Z,1.30
2022-08-01T19:04:09.580Z,1.03
2022-08-01T19:06:36.975Z,1.10
2022-08-01T19:09:05.467Z,1.20
2022-08-01T19:11:34.130Z,1.20
2022-08-01T19:14:03.075Z,1.20
2022-08-01T19:16:31.230Z,1.20
2022-08-01T19:18:58.731Z,1.20
2022-08-01T19:21:26.799Z,1.20
2022-08-01T19:24:13.185Z,1.20
2022-08-01T19:26:56.373Z,2.17
2022-08-01T19:29:35.562Z,1.10
2022-08-01T19:32:06.878Z,1.20
2022-08-01T19:34:42.461Z,1.10
2022-08-01T19:37:12.089Z,1.60
2022-08-01T19:39:44.422Z,1.20
2022-08-01T19:42:13.535Z,1.13
2022-08-01T19:44:40.918Z,1.00
2022-08-01T19:47:09.845Z,1.20
2022-08-01T19:49:38.681Z,1.20
2022-08-01T19:52:07.672Z,1.37
2022-08-01T19:54:38.050Z,3.73
2022-08-01T19:57:07.572Z,3.70
2022-08-01T19:59:37.032Z,3.07
2022-08-01T20:02:05.896Z,2.23
2022-08-01T20:04:35.261Z,2.07
2022-08-01T20:07:03.577Z,1.70
2022-08-01T20:09:31.901Z,2.20
2022-08-01T20:12:00.408Z,2.30
2022-08-01T20:14:27.914Z,2.20
2022-08-01T20:16:56.795Z,2.50
2022-08-01T20:19:25.894Z,1.50
2022-08-01T20:22:02.980Z,2.63
2022-08-01T20:24:45.996Z,1.60
2022-08-01T20:27:15.733Z,3.17
2022-08-01T20:29:45.153Z,1.90
2022-08-01T20:32:14.999Z,1.63
2022-08-01T20:34:43.411Z,1.77
2022-08-01T20:37:12.721Z,1.80
2022-08-01T20:39:44.236Z,1.83
2022-08-01T20:42:16.365Z,2.17
2022-08-01T20:44:45.413Z,2.57
2022-08-01T20:47:15.066Z,2.77
2022-08-01T20:49:44.342Z,3.20
2022-08-01T20:52:12.756Z,2.43
2022-08-01T20:54:42.134Z,2.70
2022-08-01T20:57:21.115Z,2.27
2022-08-01T20:59:57.565Z,2.90
2022-08-01T21:02:31.063Z,2.10
2022-08-01T21:05:12.720Z,2.20
2022-08-01T21:07:47.061Z,2.27
2022-08-01T21:10:16.481Z,2.07
2022-08-01T21:12:58.611Z,2.30
2022-08-01T21:15:31.708Z,2.10
2022-08-01T21:18:02.506Z,1.70
2022-08-01T21:20:33.595Z,1.70
2022-08-01T21:23:43.028Z,1.23
2022-08-01T21:26:12.396Z,1.10
2022-08-01T21:28:40.986Z,1.10
2022-08-01T21:31:23.133Z,2.17
2022-08-01T21:34:02.005Z,0.77
2022-08-01T21:36:32.209Z,0.90
2022-08-01T21:39:02.577Z,1.30
2022-08-01T21:42:03.340Z,0.80
2022-08-01T21:44:29.009Z,0.80
2022-08-01T21:47:00.990Z,2.83
2022-08-01T21:49:28.857Z,0.70
2022-08-01T21:52:21.458Z,0.77
2022-08-01T21:55:10.887Z,0.70
2022-08-01T21:58:03.568Z,0.80
2022-08-01T22:00:31.086Z,0.80
2022-08-01T22:03:30.623Z,0.90
2022-08-01T22:06:03.170Z,0.70
2022-08-01T22:08:39.799Z,0.70
2022-08-01T22:11:12.663Z,0.80
2022-08-01T22:13:39.851Z,0.70
2022-08-01T22:16:09.895Z,0.70
2022-08-01T22:18:38.666Z,0.60
2022-08-01T22:21:08.098Z,0.50
2022-08-01T22:23:37.408Z,0.60
2022-08-01T22:26:10.706Z,0.60
2022-08-01T22:28:40.472Z,1.10
2022-08-01T22:31:07.767Z,0.60
2022-08-01T22:33:37.644Z,0.60
2022-08-01T22:36:06.459Z,0.50
2022-08-01T22:38:34.858Z,0.50
2022-08-01T22:41:16.183Z,0.50
2022-08-01T22:43:57.535Z,0.60
2022-08-01T22:46:32.819Z,0.67
2022-08-01T22:49:34.968Z,0.60
2022-08-01T22:52:20.336Z,1.30
2022-08-01T22:54:51.218Z,0.60
2022-08-01T22:57:35.008Z,0.53
2022-08-01T23:00:09.349Z,0.60
2022-08-01T23:02:54.491Z,0.80
2022-08-01T23:05:25.101Z,0.60
2022-08-01T23:07:54.774Z,0.70
2022-08-01T23:10:25.002Z,0.70
2022-08-01T23:12:54.778Z,0.70
2022-08-01T23:15:24.295Z,0.60
2022-08-01T23:17:53.285Z,0.70
2022-08-01T23:20:22.350Z,0.70
2022-08-01T23:22:52.079Z,0.70
2022-08-01T23:25:20.137Z,1.10
2022-08-01T23:27:51.340Z,0.70
2022-08-01T23:30:34.159Z,1.10
2022-08-01T23:33:02.365Z,0.80
2022-08-01T23:35:30.438Z,0.60
2022-08-01T23:38:02.219Z,0.70
2022-08-01T23:40:34.433Z,0.63
2022-08-01T23:43:03.680Z,0.70
2022-08-01T23:46:02.523Z,0.60
2022-08-01T23:48:19.365Z,0.70
2022-08-01T23:50:46.781Z,0.60
2022-08-01T23:53:15.325Z,0.60
2022-08-01T23:55:44.276Z,0.93
2022-08-01T23:58:11.885Z,0.70
